To NAV CANADA Home Page Login to a new session Search on AWWS site Feedback and Comments Disclaimer Vers la page française équivalente Tips FAQ What's new on the site To the Forecasts and Observations / NOTAM section To "File a Flight Plan" website Publications and other links Update of the User's profile FIC Telephone Numbers My Weather Data Folder Route Weather Data Regional Weather Data Local Weather Data To the Forecasts and Observations / NOTAM section
Request Generated 04/25/2014 at 01:14:41 UTC . Weather information available at that time is displayed.

METAR/TAF

WINDSOR/ON    

METAR CYQG 250100Z 12010KT 15SM BKN160 09/M04 A2996 RMK AC7 OOCNL -SHRA SLP150=
SPECI CYQG 250036Z 10013G18KT 15SM -SHRA OVC091 RMK AC8=
METAR CYQG 250000Z 12009KT 15SM OVC110 10/M06 A2999 RMK AC8 SLP161=
METAR CYQG 242300Z 12014KT 15SM OVC120 10/M07 A3001 RMK AC8 SLP167=

TAF CYQG 242338Z 2500/2524 11012KT P6SM BKN120
FM251200 08010KT P6SM BKN070
FM251400 10007KT P6SM -RA OVC030 TEMPO 2514/2518 5SM -RA BR
OVC015
FM251800 04005KT 4SM -RA BR OVC008
FM252100 32007G17KT P6SM BKN015
BECMG 2522/2524 SKC
RMK NXT FCST BY 250600Z=
Your time UTC time
Weather data provided by Environment Canada and NAV CANADA